Terminal Aerodrome Forecast
Issued by NWS

Home | Current Version | Previous Version | Text Only | Print | Product List | Glossary Off
Versions: 1 2 3 4 5 6 7 8 9 10 11 12 13

000
FTUS43 KABR 192300
TAFMBG
TAF
KMBG 192320Z 2000/2024 30008KT P6SM SCT150
     FM201800 30019G26KT P6SM FEW250
     FM202100 32024G35KT P6SM FEW250=

USA.gov is the U.S. government's official web portal to all federal, state and local government web resources and services.